sensor_id;sensor_type;location;lat;lon;timestamp;P1;durP1;ratioP1;P2;durP2;ratioP2
5237;SDS011;2639;49.700;7.962;2022-10-22T06:48:02;2.33;;;1.40;;
5237;SDS011;2639;49.700;7.962;2022-10-22T06:51:12;5.00;;;4.10;;
5237;SDS011;2639;49.700;7.962;2022-10-22T06:54:22;4.50;;;2.87;;
5237;SDS011;2639;49.700;7.962;2022-10-22T06:57:32;4.67;;;2.80;;
5237;SDS011;2639;49.700;7.962;2022-10-22T07:00:42;6.90;;;3.00;;
5237;SDS011;2639;49.700;7.962;2022-10-22T07:03:53;4.73;;;2.53;;
5237;SDS011;2639;49.700;7.962;2022-10-22T07:07:03;8.80;;;4.63;;
5237;SDS011;2639;49.700;7.962;2022-10-22T07:10:13;4.10;;;2.00;;
5237;SDS011;2639;49.700;7.962;2022-10-22T07:13:23;2.77;;;2.13;;
5237;SDS011;2639;49.700;7.962;2022-10-22T07:16:33;1.60;;;1.33;;
5237;SDS011;2639;49.700;7.962;2022-10-22T07:19:44;2.67;;;1.03;;
5237;SDS011;2639;49.700;7.962;2022-10-22T07:22:58;3.80;;;0.83;;
5237;SDS011;2639;49.700;7.962;2022-10-22T07:26:08;1.13;;;0.70;;
5237;SDS011;2639;49.700;7.962;2022-10-22T07:29:21;2.97;;;0.77;;
5237;SDS011;2639;49.700;7.962;2022-10-22T07:32:31;2.53;;;0.83;;
5237;SDS011;2639;49.700;7.962;2022-10-22T07:35:42;1.97;;;0.97;;
5237;SDS011;2639;49.700;7.962;2022-10-22T07:38:53;3.17;;;0.80;;
5237;SDS011;2639;49.700;7.962;2022-10-22T07:42:04;4.80;;;0.80;;
5237;SDS011;2639;49.700;7.962;2022-10-22T07:45:14;1.20;;;0.80;;
5237;SDS011;2639;49.700;7.962;2022-10-22T07:48:24;3.43;;;0.80;;
5237;SDS011;2639;49.700;7.962;2022-10-22T07:51:35;5.03;;;1.20;;
5237;SDS011;2639;49.700;7.962;2022-10-22T07:54:45;3.63;;;0.60;;
5237;SDS011;2639;49.700;7.962;2022-10-22T07:57:55;3.17;;;0.80;;
5237;SDS011;2639;49.700;7.962;2022-10-22T08:01:05;2.40;;;0.80;;
5237;SDS011;2639;49.700;7.962;2022-10-22T08:04:18;1.23;;;0.70;;
5237;SDS011;2639;49.700;7.962;2022-10-22T08:07:29;1.73;;;0.90;;
5237;SDS011;2639;49.700;7.962;2022-10-22T08:10:39;3.07;;;2.23;;
5237;SDS011;2639;49.700;7.962;2022-10-22T08:13:51;3.27;;;2.57;;
5237;SDS011;2639;49.700;7.962;2022-10-22T08:17:01;3.07;;;2.13;;
5237;SDS011;2639;49.700;7.962;2022-10-22T08:20:12;5.67;;;2.00;;
5237;SDS011;2639;49.700;7.962;2022-10-22T08:23:23;3.37;;;1.13;;
5237;SDS011;2639;49.700;7.962;2022-10-22T08:26:36;5.03;;;3.10;;
5237;SDS011;2639;49.700;7.962;2022-10-22T08:29:48;0.93;;;0.60;;
5237;SDS011;2639;49.700;7.962;2022-10-22T08:32:58;3.63;;;0.80;;
5237;SDS011;2639;49.700;7.962;2022-10-22T08:36:08;2.83;;;0.70;;
5237;SDS011;2639;49.700;7.962;2022-10-22T08:39:25;1.13;;;0.80;;
5237;SDS011;2639;49.700;7.962;2022-10-22T08:42:42;3.23;;;0.90;;
5237;SDS011;2639;49.700;7.962;2022-10-22T08:46:09;4.23;;;0.70;;
5237;SDS011;2639;49.700;7.962;2022-10-22T08:49:29;17.57;;;7.67;;
5237;SDS011;2639;49.700;7.962;2022-10-22T08:52:49;1.93;;;1.00;;
5237;SDS011;2639;49.700;7.962;2022-10-22T08:56:06;2.23;;;1.10;;
5237;SDS011;2639;49.700;7.962;2022-10-22T08:59:20;4.80;;;1.13;;
5237;SDS011;2639;49.700;7.962;2022-10-22T09:02:36;3.20;;;2.53;;
5237;SDS011;2639;49.700;7.962;2022-10-22T09:05:58;2.93;;;1.30;;
5237;SDS011;2639;49.700;7.962;2022-10-22T09:09:14;2.77;;;1.03;;
5237;SDS011;2639;49.700;7.962;2022-10-22T09:15:59;3.13;;;0.90;;
5237;SDS011;2639;49.700;7.962;2022-10-22T09:19:19;3.37;;;1.10;;
5237;SDS011;2639;49.700;7.962;2022-10-22T09:22:42;2.63;;;1.37;;
5237;SDS011;2639;49.700;7.962;2022-10-22T09:25:58;4.27;;;1.30;;
5237;SDS011;2639;49.700;7.962;2022-10-22T09:29:13;2.70;;;1.00;;
5237;SDS011;2639;49.700;7.962;2022-10-22T09:32:28;5.60;;;1.40;;
5237;SDS011;2639;49.700;7.962;2022-10-22T09:35:43;4.50;;;2.17;;
5237;SDS011;2639;49.700;7.962;2022-10-22T09:38:54;2.57;;;1.20;;
5237;SDS011;2639;49.700;7.962;2022-10-22T09:42:06;5.07;;;1.17;;
5237;SDS011;2639;49.700;7.962;2022-10-22T09:45:20;2.40;;;1.13;;
5237;SDS011;2639;49.700;7.962;2022-10-22T09:48:33;4.03;;;0.93;;
5237;SDS011;2639;49.700;7.962;2022-10-22T09:51:50;7.57;;;3.67;;
5237;SDS011;2639;49.700;7.962;2022-10-22T09:55:10;3.40;;;0.90;;
5237;SDS011;2639;49.700;7.962;2022-10-22T09:58:21;2.63;;;1.10;;
5237;SDS011;2639;49.700;7.962;2022-10-22T10:01:34;3.53;;;2.10;;
5237;SDS011;2639;49.700;7.962;2022-10-22T10:04:46;6.97;;;1.40;;
5237;SDS011;2639;49.700;7.962;2022-10-22T10:08:01;3.30;;;1.07;;
5237;SDS011;2639;49.700;7.962;2022-10-22T10:11:23;3.80;;;1.10;;
5237;SDS011;2639;49.700;7.962;2022-10-22T10:14:38;3.33;;;1.30;;
5237;SDS011;2639;49.700;7.962;2022-10-22T10:18:02;2.90;;;1.80;;
5237;SDS011;2639;49.700;7.962;2022-10-22T10:21:29;3.07;;;1.63;;
5237;SDS011;2639;49.700;7.962;2022-10-22T10:24:50;3.63;;;1.40;;
5237;SDS011;2639;49.700;7.962;2022-10-22T10:28:15;3.60;;;1.53;;
5237;SDS011;2639;49.700;7.962;2022-10-22T10:31:39;3.23;;;1.90;;
5237;SDS011;2639;49.700;7.962;2022-10-22T10:35:01;2.23;;;1.10;;
5237;SDS011;2639;49.700;7.962;2022-10-22T10:38:29;1.80;;;1.30;;
5237;SDS011;2639;49.700;7.962;2022-10-22T10:41:49;4.13;;;1.33;;
5237;SDS011;2639;49.700;7.962;2022-10-22T10:45:15;4.23;;;1.53;;
5237;SDS011;2639;49.700;7.962;2022-10-22T10:48:32;4.43;;;1.40;;
5237;SDS011;2639;49.700;7.962;2022-10-22T10:51:56;5.10;;;1.60;;
5237;SDS011;2639;49.700;7.962;2022-10-22T10:55:12;2.93;;;1.10;;
5237;SDS011;2639;49.700;7.962;2022-10-22T10:58:30;2.60;;;1.10;;
5237;SDS011;2639;49.700;7.962;2022-10-22T11:01:56;4.60;;;1.40;;
5237;SDS011;2639;49.700;7.962;2022-10-22T11:05:21;4.37;;;1.30;;
5237;SDS011;2639;49.700;7.962;2022-10-22T11:08:44;4.13;;;1.20;;
5237;SDS011;2639;49.700;7.962;2022-10-22T11:12:03;3.90;;;2.00;;
5237;SDS011;2639;49.700;7.962;2022-10-22T11:15:24;2.87;;;1.30;;
5237;SDS011;2639;49.700;7.962;2022-10-22T11:18:39;4.43;;;1.20;;
5237;SDS011;2639;49.700;7.962;2022-10-22T11:21:54;3.83;;;1.00;;
5237;SDS011;2639;49.700;7.962;2022-10-22T11:25:14;4.67;;;1.23;;
5237;SDS011;2639;49.700;7.962;2022-10-22T11:28:28;4.67;;;1.13;;
5237;SDS011;2639;49.700;7.962;2022-10-22T11:31:42;3.60;;;1.10;;
5237;SDS011;2639;49.700;7.962;2022-10-22T11:34:53;4.87;;;1.50;;
5237;SDS011;2639;49.700;7.962;2022-10-22T11:38:07;4.27;;;1.10;;
5237;SDS011;2639;49.700;7.962;2022-10-22T11:41:27;3.50;;;1.10;;
5237;SDS011;2639;49.700;7.962;2022-10-22T11:44:45;3.47;;;1.00;;
5237;SDS011;2639;49.700;7.962;2022-10-22T11:47:57;3.70;;;1.30;;
5237;SDS011;2639;49.700;7.962;2022-10-22T11:54:43;3.67;;;1.87;;
5237;SDS011;2639;49.700;7.962;2022-10-22T11:57:56;4.80;;;1.33;;
5237;SDS011;2639;49.700;7.962;2022-10-22T12:01:16;6.37;;;1.67;;
5237;SDS011;2639;49.700;7.962;2022-10-22T12:04:39;3.33;;;1.50;;
5237;SDS011;2639;49.700;7.962;2022-10-22T12:07:51;4.80;;;1.17;;
5237;SDS011;2639;49.700;7.962;2022-10-22T12:11:12;6.27;;;2.50;;
5237;SDS011;2639;49.700;7.962;2022-10-22T12:14:26;3.73;;;1.60;;
5237;SDS011;2639;49.700;7.962;2022-10-22T12:17:42;2.87;;;1.27;;
5237;SDS011;2639;49.700;7.962;2022-10-22T12:20:55;3.23;;;1.40;;
5237;SDS011;2639;49.700;7.962;2022-10-22T12:24:05;6.43;;;1.30;;
5237;SDS011;2639;49.700;7.962;2022-10-22T12:27:19;4.33;;;1.93;;
5237;SDS011;2639;49.700;7.962;2022-10-22T12:30:37;7.30;;;3.87;;
5237;SDS011;2639;49.700;7.962;2022-10-22T12:33:54;6.77;;;1.77;;
5237;SDS011;2639;49.700;7.962;2022-10-22T12:37:05;3.67;;;1.40;;
5237;SDS011;2639;49.700;7.962;2022-10-22T12:40:16;6.63;;;1.73;;
5237;SDS011;2639;49.700;7.962;2022-10-22T12:43:28;4.03;;;1.40;;
5237;SDS011;2639;49.700;7.962;2022-10-22T12:46:42;5.67;;;2.50;;
5237;SDS011;2639;49.700;7.962;2022-10-22T12:49:54;7.97;;;3.33;;
5237;SDS011;2639;49.700;7.962;2022-10-22T12:53:06;3.57;;;1.47;;
5237;SDS011;2639;49.700;7.962;2022-10-22T12:56:26;5.50;;;1.70;;
5237;SDS011;2639;49.700;7.962;2022-10-22T12:59:58;4.33;;;1.70;;
5237;SDS011;2639;49.700;7.962;2022-10-22T13:03:10;5.17;;;1.77;;
5237;SDS011;2639;49.700;7.962;2022-10-22T13:06:34;4.10;;;1.20;;
5237;SDS011;2639;49.700;7.962;2022-10-22T13:09:45;5.30;;;1.50;;
5237;SDS011;2639;49.700;7.962;2022-10-22T13:12:57;4.07;;;1.40;;
5237;SDS011;2639;49.700;7.962;2022-10-22T13:16:12;5.10;;;1.20;;
5237;SDS011;2639;49.700;7.962;2022-10-22T13:22:52;5.60;;;1.70;;
5237;SDS011;2639;49.700;7.962;2022-10-22T13:26:10;8.93;;;1.70;;
5237;SDS011;2639;49.700;7.962;2022-10-22T13:29:25;3.30;;;1.17;;
5237;SDS011;2639;49.700;7.962;2022-10-22T13:32:35;5.53;;;1.40;;
5237;SDS011;2639;49.700;7.962;2022-10-22T13:36:00;3.40;;;1.37;;
5237;SDS011;2639;49.700;7.962;2022-10-22T13:39:11;6.40;;;2.10;;
5237;SDS011;2639;49.700;7.962;2022-10-22T13:42:24;2.93;;;1.17;;
5237;SDS011;2639;49.700;7.962;2022-10-22T13:45:34;8.13;;;3.00;;
5237;SDS011;2639;49.700;7.962;2022-10-22T13:48:44;5.10;;;1.97;;
5237;SDS011;2639;49.700;7.962;2022-10-22T13:51:57;8.00;;;1.40;;
5237;SDS011;2639;49.700;7.962;2022-10-22T13:55:11;6.87;;;5.70;;
5237;SDS011;2639;49.700;7.962;2022-10-22T13:58:23;5.97;;;1.53;;
5237;SDS011;2639;49.700;7.962;2022-10-22T14:01:33;4.47;;;1.57;;
5237;SDS011;2639;49.700;7.962;2022-10-22T14:04:45;2.93;;;1.23;;
5237;SDS011;2639;49.700;7.962;2022-10-22T14:07:56;6.67;;;1.50;;
5237;SDS011;2639;49.700;7.962;2022-10-22T14:11:08;7.80;;;3.33;;
5237;SDS011;2639;49.700;7.962;2022-10-22T14:14:19;4.67;;;1.53;;
5237;SDS011;2639;49.700;7.962;2022-10-22T14:17:29;2.00;;;1.20;;
5237;SDS011;2639;49.700;7.962;2022-10-22T14:20:40;6.73;;;3.17;;
5237;SDS011;2639;49.700;7.962;2022-10-22T14:23:52;5.03;;;2.40;;
5237;SDS011;2639;49.700;7.962;2022-10-22T14:27:05;5.70;;;2.23;;
5237;SDS011;2639;49.700;7.962;2022-10-22T14:30:15;5.90;;;1.73;;
5237;SDS011;2639;49.700;7.962;2022-10-22T14:33:27;4.37;;;1.30;;
5237;SDS011;2639;49.700;7.962;2022-10-22T14:36:42;5.03;;;1.60;;
5237;SDS011;2639;49.700;7.962;2022-10-22T14:39:56;3.80;;;1.20;;
5237;SDS011;2639;49.700;7.962;2022-10-22T14:43:09;6.00;;;1.60;;
5237;SDS011;2639;49.700;7.962;2022-10-22T14:46:23;4.67;;;1.80;;
5237;SDS011;2639;49.700;7.962;2022-10-22T14:49:35;4.70;;;1.50;;
5237;SDS011;2639;49.700;7.962;2022-10-22T14:52:45;5.43;;;2.37;;
5237;SDS011;2639;49.700;7.962;2022-10-22T14:55:57;3.73;;;1.33;;
5237;SDS011;2639;49.700;7.962;2022-10-22T14:59:10;5.07;;;1.60;;
5237;SDS011;2639;49.700;7.962;2022-10-22T15:02:20;4.00;;;1.50;;
5237;SDS011;2639;49.700;7.962;2022-10-22T15:05:31;6.63;;;2.00;;
5237;SDS011;2639;49.700;7.962;2022-10-22T15:08:48;4.70;;;1.83;;
5237;SDS011;2639;49.700;7.962;2022-10-22T15:12:00;4.87;;;1.40;;
5237;SDS011;2639;49.700;7.962;2022-10-22T15:15:10;7.83;;;2.13;;
5237;SDS011;2639;49.700;7.962;2022-10-22T15:18:26;11.10;;;5.80;;
5237;SDS011;2639;49.700;7.962;2022-10-22T15:21:37;10.20;;;5.10;;
5237;SDS011;2639;49.700;7.962;2022-10-22T15:24:49;8.27;;;4.27;;
5237;SDS011;2639;49.700;7.962;2022-10-22T15:28:02;6.20;;;2.00;;
5237;SDS011;2639;49.700;7.962;2022-10-22T15:31:17;6.27;;;2.60;;
5237;SDS011;2639;49.700;7.962;2022-10-22T15:34:52;6.57;;;3.03;;
5237;SDS011;2639;49.700;7.962;2022-10-22T15:38:03;5.00;;;2.63;;
5237;SDS011;2639;49.700;7.962;2022-10-22T15:41:17;5.27;;;2.10;;
5237;SDS011;2639;49.700;7.962;2022-10-22T15:44:29;9.83;;;2.00;;
5237;SDS011;2639;49.700;7.962;2022-10-22T15:47:43;10.27;;;2.40;;
5237;SDS011;2639;49.700;7.962;2022-10-22T15:50:57;8.33;;;2.33;;
5237;SDS011;2639;49.700;7.962;2022-10-22T15:54:11;7.93;;;4.03;;
5237;SDS011;2639;49.700;7.962;2022-10-22T15:57:22;12.00;;;4.20;;
5237;SDS011;2639;49.700;7.962;2022-10-22T16:03:45;8.70;;;3.33;;
5237;SDS011;2639;49.700;7.962;2022-10-22T16:06:56;10.63;;;3.87;;
5237;SDS011;2639;49.700;7.962;2022-10-22T16:10:06;10.00;;;3.63;;
5237;SDS011;2639;49.700;7.962;2022-10-22T16:13:20;5.63;;;1.80;;
5237;SDS011;2639;49.700;7.962;2022-10-22T16:16:34;10.23;;;1.97;;
5237;SDS011;2639;49.700;7.962;2022-10-22T16:19:46;8.27;;;2.43;;
5237;SDS011;2639;49.700;7.962;2022-10-22T16:22:59;8.23;;;2.37;;
5237;SDS011;2639;49.700;7.962;2022-10-22T16:26:09;13.33;;;8.40;;
5237;SDS011;2639;49.700;7.962;2022-10-22T16:29:19;17.43;;;6.50;;
5237;SDS011;2639;49.700;7.962;2022-10-22T16:32:30;7.57;;;2.97;;
5237;SDS011;2639;49.700;7.962;2022-10-22T16:35:40;6.93;;;2.50;;
5237;SDS011;2639;49.700;7.962;2022-10-22T16:38:51;8.83;;;2.20;;
5237;SDS011;2639;49.700;7.962;2022-10-22T16:42:06;6.97;;;2.17;;
5237;SDS011;2639;49.700;7.962;2022-10-22T16:45:18;7.53;;;2.07;;
5237;SDS011;2639;49.700;7.962;2022-10-22T16:48:31;7.70;;;1.87;;
5237;SDS011;2639;49.700;7.962;2022-10-22T16:51:41;8.43;;;2.17;;
5237;SDS011;2639;49.700;7.962;2022-10-22T16:54:54;19.67;;;12.67;;
5237;SDS011;2639;49.700;7.962;2022-10-22T16:58:05;9.53;;;5.63;;
5237;SDS011;2639;49.700;7.962;2022-10-22T17:01:18;9.57;;;3.20;;
5237;SDS011;2639;49.700;7.962;2022-10-22T17:04:34;6.50;;;3.10;;
5237;SDS011;2639;49.700;7.962;2022-10-22T17:07:44;11.47;;;1.90;;
5237;SDS011;2639;49.700;7.962;2022-10-22T17:10:56;7.17;;;1.57;;
5237;SDS011;2639;49.700;7.962;2022-10-22T17:14:06;5.63;;;2.00;;
5237;SDS011;2639;49.700;7.962;2022-10-22T17:17:16;6.73;;;2.37;;
5237;SDS011;2639;49.700;7.962;2022-10-22T17:20:28;5.37;;;2.27;;
5237;SDS011;2639;49.700;7.962;2022-10-22T17:23:44;5.33;;;1.83;;
5237;SDS011;2639;49.700;7.962;2022-10-22T17:26:57;5.80;;;3.67;;
5237;SDS011;2639;49.700;7.962;2022-10-22T17:30:11;11.70;;;3.60;;
5237;SDS011;2639;49.700;7.962;2022-10-22T17:33:23;21.30;;;13.23;;
5237;SDS011;2639;49.700;7.962;2022-10-22T17:36:35;15.07;;;9.07;;
5237;SDS011;2639;49.700;7.962;2022-10-22T17:39:45;19.37;;;10.70;;
5237;SDS011;2639;49.700;7.962;2022-10-22T17:42:56;13.20;;;6.03;;
5237;SDS011;2639;49.700;7.962;2022-10-22T17:46:07;12.43;;;5.17;;
5237;SDS011;2639;49.700;7.962;2022-10-22T17:49:18;10.67;;;2.60;;
5237;SDS011;2639;49.700;7.962;2022-10-22T17:52:33;7.03;;;2.57;;
5237;SDS011;2639;49.700;7.962;2022-10-22T17:55:58;10.50;;;5.47;;
5237;SDS011;2639;49.700;7.962;2022-10-22T17:59:09;12.10;;;5.77;;
5237;SDS011;2639;49.700;7.962;2022-10-22T18:02:22;11.67;;;6.13;;
5237;SDS011;2639;49.700;7.962;2022-10-22T18:05:34;12.47;;;4.27;;
5237;SDS011;2639;49.700;7.962;2022-10-22T18:12:14;11.43;;;4.67;;
5237;SDS011;2639;49.700;7.962;2022-10-22T18:15:28;10.33;;;4.60;;
5237;SDS011;2639;49.700;7.962;2022-10-22T18:18:43;25.17;;;13.57;;
5237;SDS011;2639;49.700;7.962;2022-10-22T18:21:54;23.40;;;16.30;;
5237;SDS011;2639;49.700;7.962;2022-10-22T18:25:06;60.10;;;46.93;;
5237;SDS011;2639;49.700;7.962;2022-10-22T18:28:17;27.83;;;21.30;;
5237;SDS011;2639;49.700;7.962;2022-10-22T18:31:27;19.63;;;13.63;;
5237;SDS011;2639;49.700;7.962;2022-10-22T18:34:38;11.13;;;4.50;;
5237;SDS011;2639;49.700;7.962;2022-10-22T18:37:48;28.43;;;19.03;;
5237;SDS011;2639;49.700;7.962;2022-10-22T18:41:01;9.13;;;3.93;;
5237;SDS011;2639;49.700;7.962;2022-10-22T18:44:17;9.60;;;3.77;;
5237;SDS011;2639;49.700;7.962;2022-10-22T18:47:31;8.33;;;3.13;;
5237;SDS011;2639;49.700;7.962;2022-10-22T18:50:41;12.50;;;4.10;;
5237;SDS011;2639;49.700;7.962;2022-10-22T18:53:51;9.87;;;2.57;;
5237;SDS011;2639;49.700;7.962;2022-10-22T18:57:20;13.70;;;5.80;;
5237;SDS011;2639;49.700;7.962;2022-10-22T19:00:33;21.90;;;14.40;;
5237;SDS011;2639;49.700;7.962;2022-10-22T19:03:44;17.33;;;13.97;;
5237;SDS011;2639;49.700;7.962;2022-10-22T19:07:02;21.03;;;16.83;;
5237;SDS011;2639;49.700;7.962;2022-10-22T19:10:16;11.17;;;6.47;;
5237;SDS011;2639;49.700;7.962;2022-10-22T19:13:30;16.00;;;5.93;;
5237;SDS011;2639;49.700;7.962;2022-10-22T19:16:40;15.23;;;7.00;;
5237;SDS011;2639;49.700;7.962;2022-10-22T19:19:50;40.10;;;28.90;;
5237;SDS011;2639;49.700;7.962;2022-10-22T19:23:00;26.77;;;18.37;;
5237;SDS011;2639;49.700;7.962;2022-10-22T19:26:11;14.47;;;12.33;;
5237;SDS011;2639;49.700;7.962;2022-10-22T19:29:24;33.13;;;23.77;;
5237;SDS011;2639;49.700;7.962;2022-10-22T19:32:37;22.63;;;14.57;;
5237;SDS011;2639;49.700;7.962;2022-10-22T19:35:50;14.93;;;9.90;;
5237;SDS011;2639;49.700;7.962;2022-10-22T19:39:00;13.17;;;8.53;;
5237;SDS011;2639;49.700;7.962;2022-10-22T19:42:11;17.60;;;7.63;;
5237;SDS011;2639;49.700;7.962;2022-10-22T19:45:25;16.13;;;12.50;;
5237;SDS011;2639;49.700;7.962;2022-10-22T19:48:35;42.27;;;36.47;;
5237;SDS011;2639;49.700;7.962;2022-10-22T19:51:49;41.03;;;32.47;;
5237;SDS011;2639;49.700;7.962;2022-10-22T19:54:59;49.53;;;44.20;;
5237;SDS011;2639;49.700;7.962;2022-10-22T19:58:12;53.00;;;41.13;;
5237;SDS011;2639;49.700;7.962;2022-10-22T20:01:24;73.67;;;66.07;;
5237;SDS011;2639;49.700;7.962;2022-10-22T20:04:35;62.30;;;55.90;;
5237;SDS011;2639;49.700;7.962;2022-10-22T20:07:47;22.57;;;16.67;;
5237;SDS011;2639;49.700;7.962;2022-10-22T20:11:00;20.03;;;14.83;;
5237;SDS011;2639;49.700;7.962;2022-10-22T20:14:17;19.57;;;12.17;;
5237;SDS011;2639;49.700;7.962;2022-10-22T20:17:29;16.60;;;7.80;;
5237;SDS011;2639;49.700;7.962;2022-10-22T20:20:38;15.20;;;11.97;;
5237;SDS011;2639;49.700;7.962;2022-10-22T20:23:50;10.77;;;7.07;;
5237;SDS011;2639;49.700;7.962;2022-10-22T20:27:04;10.67;;;8.37;;
5237;SDS011;2639;49.700;7.962;2022-10-22T20:30:17;13.00;;;5.83;;
5237;SDS011;2639;49.700;7.962;2022-10-22T20:36:41;8.90;;;6.27;;
5237;SDS011;2639;49.700;7.962;2022-10-22T20:39:51;11.53;;;6.73;;
5237;SDS011;2639;49.700;7.962;2022-10-22T20:43:01;10.53;;;6.67;;
5237;SDS011;2639;49.700;7.962;2022-10-22T20:46:13;11.97;;;9.03;;
5237;SDS011;2639;49.700;7.962;2022-10-22T20:49:26;12.30;;;8.07;;
5237;SDS011;2639;49.700;7.962;2022-10-22T20:52:36;12.43;;;7.07;;
5237;SDS011;2639;49.700;7.962;2022-10-22T20:55:50;7.40;;;4.50;;
5237;SDS011;2639;49.700;7.962;2022-10-22T20:59:05;7.33;;;5.30;;
5237;SDS011;2639;49.700;7.962;2022-10-22T21:02:18;9.13;;;4.37;;
5237;SDS011;2639;49.700;7.962;2022-10-22T21:05:29;14.33;;;5.90;;
5237;SDS011;2639;49.700;7.962;2022-10-22T21:08:39;7.17;;;4.27;;
5237;SDS011;2639;49.700;7.962;2022-10-22T21:11:49;10.47;;;4.40;;
5237;SDS011;2639;49.700;7.962;2022-10-22T21:15:02;11.70;;;6.60;;
5237;SDS011;2639;49.700;7.962;2022-10-22T21:18:19;8.17;;;4.73;;
5237;SDS011;2639;49.700;7.962;2022-10-22T21:21:32;15.27;;;4.97;;
5237;SDS011;2639;49.700;7.962;2022-10-22T21:24:42;8.80;;;2.73;;
5237;SDS011;2639;49.700;7.962;2022-10-22T21:27:52;6.57;;;1.83;;
5237;SDS011;2639;49.700;7.962;2022-10-22T21:31:03;8.03;;;2.30;;
5237;SDS011;2639;49.700;7.962;2022-10-22T21:34:13;8.10;;;2.20;;
5237;SDS011;2639;49.700;7.962;2022-10-22T21:37:30;15.10;;;2.93;;
5237;SDS011;2639;49.700;7.962;2022-10-22T21:40:42;8.23;;;2.30;;
5237;SDS011;2639;49.700;7.962;2022-10-22T21:43:52;10.50;;;2.90;;
5237;SDS011;2639;49.700;7.962;2022-10-22T21:47:02;7.67;;;2.53;;
5237;SDS011;2639;49.700;7.962;2022-10-22T21:50:12;7.80;;;2.10;;
5237;SDS011;2639;49.700;7.962;2022-10-22T21:53:26;4.70;;;1.80;;
5237;SDS011;2639;49.700;7.962;2022-10-22T21:56:37;5.47;;;2.63;;
5237;SDS011;2639;49.700;7.962;2022-10-22T21:59:53;12.30;;;9.83;;
5237;SDS011;2639;49.700;7.962;2022-10-22T22:03:05;16.57;;;13.60;;
5237;SDS011;2639;49.700;7.962;2022-10-22T22:06:16;10.23;;;4.57;;
5237;SDS011;2639;49.700;7.962;2022-10-22T22:09:35;6.60;;;2.50;;
5237;SDS011;2639;49.700;7.962;2022-10-22T22:12:45;6.10;;;2.27;;
5237;SDS011;2639;49.700;7.962;2022-10-22T22:15:58;7.17;;;3.33;;
5237;SDS011;2639;49.700;7.962;2022-10-22T22:19:08;5.37;;;2.70;;
5237;SDS011;2639;49.700;7.962;2022-10-22T22:22:18;10.77;;;4.97;;
5237;SDS011;2639;49.700;7.962;2022-10-22T22:25:32;7.03;;;2.43;;
5237;SDS011;2639;49.700;7.962;2022-10-22T22:28:42;8.50;;;1.70;;
5237;SDS011;2639;49.700;7.962;2022-10-22T22:31:52;6.60;;;2.00;;
5237;SDS011;2639;49.700;7.962;2022-10-22T22:35:02;7.50;;;2.30;;
5237;SDS011;2639;49.700;7.962;2022-10-22T22:38:12;5.27;;;1.80;;
5237;SDS011;2639;49.700;7.962;2022-10-22T22:41:23;6.53;;;2.00;;
5237;SDS011;2639;49.700;7.962;2022-10-22T22:44:37;6.57;;;1.60;;
5237;SDS011;2639;49.700;7.962;2022-10-22T22:47:47;4.37;;;1.67;;
5237;SDS011;2639;49.700;7.962;2022-10-22T22:50:57;4.47;;;1.80;;
5237;SDS011;2639;49.700;7.962;2022-10-22T22:54:08;9.67;;;2.27;;
5237;SDS011;2639;49.700;7.962;2022-10-22T22:57:28;12.00;;;1.90;;
5237;SDS011;2639;49.700;7.962;2022-10-22T23:00:38;6.80;;;2.37;;
5237;SDS011;2639;49.700;7.962;2022-10-22T23:03:51;7.20;;;1.70;;
